Time;durP1;ratioP1;P1;durP2;ratioP2;P2;SDS_P1;SDS_P2;PMS_P1;PMS_P2;Temp;Humidity;BMP_temperature;BMP_pressure;BME280_temperature;BME280_humidity;BME280_pressure;Samples;Min_cycle;Max_cycle;Signal;HPM_P1;HPM_P2
2022/03/26 00:01:07;;;;;;;65.15;25.20;;;;;;;;;;5009394;28;96910;-74
2022/03/26 00:03:35;;;;;;;52.35;24.27;;;;;;;;;;5010457;28;97402;-73
2022/03/26 00:06:04;;;;;;;52.50;23.80;;;;;;;;;;5009744;28;95526;-74
2022/03/26 00:08:31;;;;;;;48.63;24.65;;;;;;;;;;5009917;28;96872;-74
2022/03/26 00:10:57;;;;;;;47.35;23.17;;;;;;;;;;5009546;28;97913;-74
2022/03/26 00:13:23;;;;;;;51.78;24.95;;;;;;;;;;5010372;28;95598;-74
2022/03/26 00:15:50;;;;;;;48.35;24.88;;;;;;;;;;5009613;28;96891;-74
2022/03/26 00:18:17;;;;;;;50.60;25.25;;;;;;;;;;5013328;28;97696;-74
2022/03/26 00:20:44;;;;;;;49.65;24.02;;;;;;;;;;5009029;28;97084;-74
2022/03/26 00:23:11;;;;;;;56.38;24.25;;;;;;;;;;5009204;28;97376;-74
2022/03/26 00:25:38;;;;;;;50.95;24.20;;;;;;;;;;5010274;28;95620;-74
2022/03/26 00:28:04;;;;;;;54.40;24.55;;;;;;;;;;5010113;28;96879;-74
2022/03/26 00:30:31;;;;;;;48.95;24.00;;;;;;;;;;5009066;28;97409;-74
2022/03/26 00:32:57;;;;;;;42.08;22.73;;;;;;;;;;5009665;28;95700;-73
2022/03/26 00:35:24;;;;;;;45.88;23.58;;;;;;;;;;5009696;28;96849;-74
2022/03/26 00:37:52;;;;;;;45.78;23.13;;;;;;;;;;5012945;28;97411;-75
2022/03/26 00:40:19;;;;;;;42.35;22.98;;;;;;;;;;5009818;28;95745;-74
2022/03/26 00:42:45;;;;;;;45.15;22.60;;;;;;;;;;5009081;28;96170;-74
2022/03/26 00:45:11;;;;;;;45.42;23.02;;;;;;;;;;5008950;28;95382;-74
2022/03/26 00:47:38;;;;;;;46.47;23.15;;;;;;;;;;5010251;28;96826;-74
2022/03/26 00:50:05;;;;;;;50.45;22.58;;;;;;;;;;5007653;28;97451;-74
2022/03/26 00:52:32;;;;;;;45.05;22.92;;;;;;;;;;5009031;28;95560;-74
2022/03/26 00:54:58;;;;;;;45.45;21.75;;;;;;;;;;5009455;28;97218;-75
2022/03/26 00:57:25;;;;;;;52.22;23.15;;;;;;;;;;5009301;28;97356;-74
2022/03/26 00:59:51;;;;;;;42.55;22.05;;;;;;;;;;5012712;28;95729;-74
2022/03/26 01:02:17;;;;;;;44.40;21.95;;;;;;;;;;5009146;28;96400;-74
2022/03/26 01:04:44;;;;;;;43.58;21.92;;;;;;;;;;5009354;28;95516;-75
2022/03/26 01:07:10;;;;;;;43.47;20.90;;;;;;;;;;5009712;28;96951;-77
2022/03/26 01:09:36;;;;;;;42.90;22.08;;;;;;;;;;5008641;28;96303;-76
2022/03/26 01:12:03;;;;;;;46.42;21.75;;;;;;;;;;5008643;28;95716;-76
2022/03/26 01:14:29;;;;;;;48.65;21.42;;;;;;;;;;5009716;28;97080;-75
2022/03/26 01:16:56;;;;;;;42.90;21.00;;;;;;;;;;5009084;28;97487;-76
2022/03/26 01:19:22;;;;;;;43.35;20.90;;;;;;;;;;5007886;28;95488;-76
2022/03/26 01:21:48;;;;;;;49.75;21.33;;;;;;;;;;5011532;28;96897;-75
2022/03/26 01:24:15;;;;;;;44.88;20.70;;;;;;;;;;5013901;28;96014;-76
2022/03/26 01:26:41;;;;;;;48.75;20.38;;;;;;;;;;5029438;28;96798;-75
2022/03/26 01:29:09;;;;;;;41.92;20.70;;;;;;;;;;5016939;28;97311;-75
2022/03/26 01:31:35;;;;;;;49.53;21.15;;;;;;;;;;5009187;28;95606;-74
2022/03/26 01:34:02;;;;;;;43.72;21.25;;;;;;;;;;5008706;28;97328;-75
2022/03/26 01:36:28;;;;;;;47.90;21.20;;;;;;;;;;5009296;28;97621;-75
2022/03/26 01:38:54;;;;;;;37.13;19.50;;;;;;;;;;5009216;28;95346;-74
2022/03/26 01:41:21;;;;;;;47.33;20.58;;;;;;;;;;5008145;28;97066;-74
2022/03/26 01:43:47;;;;;;;42.20;20.35;;;;;;;;;;5012256;28;97675;-74
2022/03/26 01:46:14;;;;;;;45.90;20.45;;;;;;;;;;5008403;28;96794;-74
2022/03/26 01:48:40;;;;;;;39.15;19.88;;;;;;;;;;5008597;28;97957;-74
2022/03/26 01:51:16;;;;;;;45.55;20.15;;;;;;;;;;5006824;28;95562;-73
2022/03/26 01:53:43;;;;;;;40.38;19.90;;;;;;;;;;5008699;28;97614;-74
2022/03/26 01:56:11;;;;;;;45.05;19.67;;;;;;;;;;5008405;28;97259;-74
2022/03/26 01:58:37;;;;;;;41.58;19.58;;;;;;;;;;5008935;28;95712;-74
2022/03/26 02:01:04;;;;;;;47.10;20.33;;;;;;;;;;5007599;28;97228;-74
2022/03/26 02:03:30;;;;;;;49.30;20.40;;;;;;;;;;5008219;28;96255;-74
2022/03/26 02:05:57;;;;;;;37.53;19.27;;;;;;;;;;5011885;28;97016;-74
2022/03/26 02:08:24;;;;;;;48.22;19.83;;;;;;;;;;5008148;28;97533;-74
2022/03/26 02:10:50;;;;;;;42.10;19.73;;;;;;;;;;5008206;28;95432;-73
2022/03/26 02:13:17;;;;;;;35.42;18.42;;;;;;;;;;5007845;28;95713;-73
2022/03/26 02:15:44;;;;;;;44.35;19.08;;;;;;;;;;5006479;28;97218;-74
2022/03/26 02:18:10;;;;;;;39.55;19.17;;;;;;;;;;5007286;28;95325;-74
2022/03/26 02:20:37;;;;;;;44.35;20.27;;;;;;;;;;5008502;28;97037;-74
2022/03/26 02:23:03;;;;;;;39.55;20.13;;;;;;;;;;5007437;28;97404;-74
2022/03/26 02:25:30;;;;;;;40.30;19.25;;;;;;;;;;5008076;28;95356;-74
2022/03/26 02:27:56;;;;;;;43.15;19.08;;;;;;;;;;5011086;28;96179;-75
2022/03/26 02:30:23;;;;;;;52.80;21.83;;;;;;;;;;5007610;28;95324;-74
2022/03/26 02:32:49;;;;;;;41.53;19.92;;;;;;;;;;5011496;28;96792;-74
2022/03/26 02:35:16;;;;;;;41.10;19.52;;;;;;;;;;5011319;28;96398;-74
2022/03/26 02:37:42;;;;;;;46.88;20.65;;;;;;;;;;5011674;28;95457;-75
2022/03/26 02:40:08;;;;;;;41.97;18.85;;;;;;;;;;5011441;28;97258;-76
2022/03/26 02:42:35;;;;;;;37.20;19.45;;;;;;;;;;5011364;28;97518;-75
2022/03/26 02:45:01;;;;;;;46.67;20.45;;;;;;;;;;5011039;28;95621;-75
2022/03/26 02:47:28;;;;;;;45.90;20.58;;;;;;;;;;5015062;28;97048;-75
2022/03/26 02:49:54;;;;;;;41.78;19.33;;;;;;;;;;5011233;28;95972;-75
2022/03/26 02:52:22;;;;;;;43.35;19.63;;;;;;;;;;5011164;28;96894;-75
2022/03/26 02:54:49;;;;;;;43.33;20.13;;;;;;;;;;5010950;28;97367;-75
2022/03/26 02:57:15;;;;;;;46.45;19.77;;;;;;;;;;5011165;28;95606;-74
2022/03/26 02:59:41;;;;;;;41.60;19.52;;;;;;;;;;5011274;28;96894;-75
2022/03/26 03:02:09;;;;;;;43.47;19.77;;;;;;;;;;5011136;28;96412;-74
2022/03/26 03:04:36;;;;;;;45.03;20.45;;;;;;;;;;5010968;28;95590;-74
2022/03/26 03:07:02;;;;;;;47.30;20.77;;;;;;;;;;5011169;28;97210;-75
2022/03/26 03:09:29;;;;;;;42.80;21.20;;;;;;;;;;5014072;28;97564;-75
2022/03/26 03:11:55;;;;;;;44.22;21.58;;;;;;;;;;5010864;28;95957;-75
2022/03/26 03:14:22;;;;;;;47.85;20.75;;;;;;;;;;5010734;28;96803;-75
2022/03/26 03:16:49;;;;;;;43.45;20.15;;;;;;;;;;5011448;28;95561;-74
2022/03/26 03:19:16;;;;;;;43.40;20.55;;;;;;;;;;5010647;28;96724;-75
2022/03/26 03:21:42;;;;;;;38.45;18.70;;;;;;;;;;5010748;28;97325;-74
2022/03/26 03:24:09;;;;;;;46.20;19.88;;;;;;;;;;5010585;28;95370;-75
2022/03/26 03:26:35;;;;;;;42.50;20.70;;;;;;;;;;5011007;28;96929;-74
2022/03/26 03:29:02;;;;;;;41.15;19.35;;;;;;;;;;5010086;28;97764;-74
2022/03/26 03:31:28;;;;;;;40.08;19.10;;;;;;;;;;5014406;28;95319;-74
2022/03/26 03:33:55;;;;;;;37.92;19.98;;;;;;;;;;5010204;28;97199;-74
2022/03/26 03:36:22;;;;;;;48.15;19.55;;;;;;;;;;5010758;28;95482;-73
2022/03/26 03:38:49;;;;;;;44.67;19.05;;;;;;;;;;5010994;28;96819;-74
2022/03/26 03:41:15;;;;;;;36.78;18.60;;;;;;;;;;5008687;28;97661;-75
2022/03/26 03:43:42;;;;;;;47.40;20.10;;;;;;;;;;5010389;28;95347;-74
2022/03/26 03:46:08;;;;;;;36.22;19.17;;;;;;;;;;5010758;28;96808;-74
2022/03/26 03:48:35;;;;;;;40.30;19.30;;;;;;;;;;5008868;28;95608;-75
2022/03/26 03:51:01;;;;;;;40.85;18.42;;;;;;;;;;5010722;28;95736;-75
2022/03/26 03:53:27;;;;;;;36.10;18.38;;;;;;;;;;5011766;28;96854;-75
2022/03/26 03:55:54;;;;;;;42.97;19.40;;;;;;;;;;5010606;28;95534;-74
2022/03/26 03:58:20;;;;;;;37.00;18.40;;;;;;;;;;5010544;28;96812;-74
2022/03/26 04:00:48;;;;;;;41.45;17.88;;;;;;;;;;5009336;28;97526;-74
2022/03/26 04:03:17;;;;;;;47.30;18.20;;;;;;;;;;5027149;28;95475;-75
2022/03/26 04:05:43;;;;;;;40.72;18.45;;;;;;;;;;5030821;27;96843;-74
2022/03/26 04:08:10;;;;;;;40.40;18.27;;;;;;;;;;5029851;27;97675;-75
2022/03/26 04:10:36;;;;;;;45.25;18.75;;;;;;;;;;5013283;27;95980;-74
2022/03/26 04:13:02;;;;;;;42.95;18.85;;;;;;;;;;5009946;28;96839;-75
2022/03/26 04:15:29;;;;;;;40.30;18.90;;;;;;;;;;5012704;28;96443;-75
2022/03/26 04:17:56;;;;;;;42.33;19.15;;;;;;;;;;5010508;28;96785;-75
2022/03/26 04:20:22;;;;;;;45.33;18.85;;;;;;;;;;5009777;28;97403;-75
2022/03/26 04:22:48;;;;;;;40.05;18.13;;;;;;;;;;5009965;28;95411;-75
2022/03/26 04:25:15;;;;;;;43.30;18.25;;;;;;;;;;5009898;28;97410;-74
2022/03/26 04:27:43;;;;;;;38.00;18.83;;;;;;;;;;5010033;28;97302;-74
2022/03/26 04:30:10;;;;;;;40.95;19.10;;;;;;;;;;5009507;28;95934;-74
2022/03/26 04:32:36;;;;;;;49.05;20.67;;;;;;;;;;5010342;28;96911;-74
2022/03/26 04:35:03;;;;;;;41.97;19.10;;;;;;;;;;5009089;28;97629;-74
2022/03/26 04:37:29;;;;;;;47.33;19.90;;;;;;;;;;5013217;28;95645;-74
2022/03/26 04:39:56;;;;;;;47.88;20.25;;;;;;;;;;5009808;28;97560;-74
2022/03/26 04:42:22;;;;;;;44.58;19.50;;;;;;;;;;5009492;28;95658;-73
2022/03/26 04:44:49;;;;;;;42.78;19.35;;;;;;;;;;5009264;28;97083;-73
2022/03/26 04:47:15;;;;;;;44.58;19.25;;;;;;;;;;5009763;28;97285;-74
2022/03/26 04:49:41;;;;;;;44.58;19.33;;;;;;;;;;5009082;28;95459;-73
2022/03/26 04:52:08;;;;;;;42.15;19.17;;;;;;;;;;5009613;28;96006;-74
2022/03/26 04:54:34;;;;;;;52.55;19.70;;;;;;;;;;5007015;28;97468;-74
2022/03/26 04:57:00;;;;;;;45.13;19.00;;;;;;;;;;5012407;28;95289;-74
2022/03/26 04:59:27;;;;;;;45.50;18.98;;;;;;;;;;5009611;28;97428;-74
2022/03/26 05:01:53;;;;;;;42.05;20.00;;;;;;;;;;5009392;28;96019;-73
2022/03/26 05:04:20;;;;;;;41.60;19.23;;;;;;;;;;5008358;28;96759;-74
2022/03/26 05:06:46;;;;;;;49.28;20.23;;;;;;;;;;5009413;28;97503;-75
2022/03/26 05:09:12;;;;;;;52.33;20.05;;;;;;;;;;5008571;28;95221;-74
2022/03/26 05:11:38;;;;;;;44.20;18.83;;;;;;;;;;5008181;28;96864;-74
2022/03/26 05:14:05;;;;;;;44.47;19.38;;;;;;;;;;5007954;28;97450;-74
2022/03/26 18:26:56;;;;;;;15.93;9.00;;;;;;;;;;5049594;27;1279342;-74
2022/03/26 18:29:23;;;;;;;17.38;8.77;;;;;;;;;;5084367;27;98060;-73
2022/03/26 18:31:53;;;;;;;16.13;9.95;;;;;;;;;;5081167;27;95582;-73
2022/03/26 18:34:19;;;;;;;16.42;9.90;;;;;;;;;;5083566;27;99406;-73
2022/03/26 18:36:46;;;;;;;18.80;9.80;;;;;;;;;;5068994;27;97372;-73
2022/03/26 18:39:12;;;;;;;17.88;9.73;;;;;;;;;;5085630;27;95343;-74
2022/03/26 18:41:40;;;;;;;21.27;9.88;;;;;;;;;;5084433;27;96690;-74
2022/03/26 18:44:07;;;;;;;18.05;9.38;;;;;;;;;;5084907;27;97604;-73
2022/03/26 18:46:34;;;;;;;18.40;10.40;;;;;;;;;;5087265;27;95395;-74
2022/03/26 18:49:00;;;;;;;17.77;9.70;;;;;;;;;;5084163;27;97183;-73
2022/03/26 18:51:27;;;;;;;17.42;10.18;;;;;;;;;;5085668;27;95644;-73
2022/03/26 18:53:53;;;;;;;16.40;9.57;;;;;;;;;;5085060;27;96738;-75
2022/03/26 18:56:19;;;;;;;22.10;11.60;;;;;;;;;;5084677;27;97911;-74
2022/03/26 18:58:45;;;;;;;17.55;10.45;;;;;;;;;;5073184;27;95275;-74
2022/03/26 19:01:12;;;;;;;16.70;10.55;;;;;;;;;;5079974;27;96203;-74
2022/03/26 19:03:38;;;;;;;16.63;9.82;;;;;;;;;;5081532;27;98450;-75
2022/03/26 19:06:06;;;;;;;15.77;10.45;;;;;;;;;;5064762;27;95398;-74
2022/03/26 19:08:32;;;;;;;19.25;9.80;;;;;;;;;;5084694;27;96683;-75
2022/03/26 19:10:59;;;;;;;13.30;9.20;;;;;;;;;;5085041;27;95681;-74
2022/03/26 19:13:25;;;;;;;15.05;8.90;;;;;;;;;;5085183;27;96805;-74
2022/03/26 19:15:52;;;;;;;15.60;9.65;;;;;;;;;;5070298;27;97636;-75
2022/03/26 19:18:18;;;;;;;18.90;10.68;;;;;;;;;;5081320;27;95420;-74
2022/03/26 19:20:48;;;;;;;15.25;8.75;;;;;;;;;;5083821;27;96505;-74
2022/03/26 19:23:14;;;;;;;14.18;7.68;;;;;;;;;;5081133;27;97458;-75
2022/03/26 19:25:40;;;;;;;14.80;8.13;;;;;;;;;;5084879;27;95359;-73
2022/03/26 19:28:09;;;;;;;13.93;7.97;;;;;;;;;;5084544;27;95805;-73
2022/03/26 19:30:37;;;;;;;14.95;8.10;;;;;;;;;;5087107;27;97575;-74
2022/03/26 19:33:04;;;;;;;15.20;7.95;;;;;;;;;;5084521;27;96440;-73
2022/03/26 19:35:30;;;;;;;13.18;7.43;;;;;;;;;;5082746;27;96466;-73
2022/03/26 19:37:57;;;;;;;16.92;8.40;;;;;;;;;;5063859;27;95365;-73
2022/03/26 19:40:24;;;;;;;14.27;8.52;;;;;;;;;;5070731;27;97328;-72
2022/03/26 19:42:50;;;;;;;13.63;7.00;;;;;;;;;;5070809;27;97538;-72
2022/03/26 19:45:17;;;;;;;14.02;7.35;;;;;;;;;;5070071;27;95197;-73
2022/03/26 19:47:43;;;;;;;16.67;7.30;;;;;;;;;;5070815;27;96690;-72
2022/03/26 19:50:12;;;;;;;15.10;7.95;;;;;;;;;;5070134;27;96227;-72
2022/03/26 19:52:39;;;;;;;13.82;7.28;;;;;;;;;;5074978;27;96467;-75
2022/03/26 19:55:06;;;;;;;13.98;7.15;;;;;;;;;;5063103;27;96380;-72
2022/03/26 19:57:32;;;;;;;12.95;6.78;;;;;;;;;;5056603;27;96167;-72
2022/03/26 19:59:59;;;;;;;13.45;7.57;;;;;;;;;;5059038;27;96819;-72
2022/03/26 20:02:25;;;;;;;14.50;7.00;;;;;;;;;;5061935;27;97718;-74
2022/03/26 20:04:52;;;;;;;14.50;8.88;;;;;;;;;;5068755;27;95712;-74
2022/03/26 20:07:19;;;;;;;16.95;8.38;;;;;;;;;;5069764;27;97201;-74
2022/03/26 20:09:46;;;;;;;16.30;7.90;;;;;;;;;;5050501;27;97432;-73
2022/03/26 20:12:13;;;;;;;16.05;8.23;;;;;;;;;;5048522;27;95481;-74
2022/03/26 20:14:40;;;;;;;15.70;8.00;;;;;;;;;;5070591;27;96780;-74
2022/03/26 20:19:52;;;;;;;13.30;8.88;;;;;;;;;;5070520;27;96918;-74
2022/03/26 20:22:18;;;;;;;13.27;7.57;;;;;;;;;;5069046;27;98283;-74
2022/03/26 20:24:45;;;;;;;13.52;7.22;;;;;;;;;;5066328;27;96042;-74
2022/03/26 20:27:17;;;;;;;13.23;7.87;;;;;;;;;;5057654;27;96748;-73
2022/03/26 20:29:44;;;;;;;13.55;7.28;;;;;;;;;;5054938;27;97435;-73
2022/03/26 20:32:11;;;;;;;17.48;7.50;;;;;;;;;;5050496;27;96058;-74
2022/03/26 20:34:37;;;;;;;14.15;8.00;;;;;;;;;;5069634;27;97090;-70
2022/03/26 20:37:07;;;;;;;13.90;7.20;;;;;;;;;;5072580;27;95182;-73
2022/03/26 20:39:34;;;;;;;13.93;7.50;;;;;;;;;;5054847;27;96921;-74
2022/03/26 20:42:00;;;;;;;19.98;9.50;;;;;;;;;;5070038;27;97380;-74
2022/03/26 20:44:27;;;;;;;14.68;7.40;;;;;;;;;;5069943;27;95376;-74
2022/03/26 20:46:53;;;;;;;14.63;7.40;;;;;;;;;;5070202;27;97126;-74
2022/03/26 20:49:20;;;;;;;15.10;7.10;;;;;;;;;;5068661;27;97252;-74
2022/03/26 20:51:46;;;;;;;13.35;7.30;;;;;;;;;;5071162;27;96648;-74
2022/03/26 20:54:12;;;;;;;12.88;7.53;;;;;;;;;;5069622;27;96756;-73
2022/03/26 20:56:40;;;;;;;13.15;7.03;;;;;;;;;;5073795;27;97424;-74
2022/03/26 20:59:06;;;;;;;14.48;7.20;;;;;;;;;;5069767;27;97152;-73
2022/03/26 21:01:33;;;;;;;13.02;6.88;;;;;;;;;;5068490;27;96216;-74
2022/03/26 21:03:59;;;;;;;13.07;6.78;;;;;;;;;;5069352;27;95633;-74
2022/03/26 21:06:26;;;;;;;11.65;6.25;;;;;;;;;;5070300;27;96858;-74
2022/03/26 21:08:52;;;;;;;12.18;6.60;;;;;;;;;;5069067;27;97281;-74
2022/03/26 21:11:18;;;;;;;12.68;6.40;;;;;;;;;;5069946;27;95548;-74
2022/03/26 21:13:45;;;;;;;11.30;6.32;;;;;;;;;;5069985;27;96969;-74
2022/03/26 21:16:12;;;;;;;12.68;6.65;;;;;;;;;;5069831;27;97275;-75
2022/03/26 21:18:40;;;;;;;10.55;6.05;;;;;;;;;;5073922;27;95376;-75
2022/03/26 21:21:06;;;;;;;12.05;6.78;;;;;;;;;;5070132;27;97350;-74
2022/03/26 21:23:32;;;;;;;12.38;6.22;;;;;;;;;;5069527;27;95298;-74
2022/03/26 21:26:02;;;;;;;10.68;6.47;;;;;;;;;;5066911;27;95312;-75
2022/03/26 21:28:28;;;;;;;11.32;6.60;;;;;;;;;;5069773;27;97374;-74
2022/03/26 21:30:55;;;;;;;9.57;5.72;;;;;;;;;;5070797;27;95395;-74
2022/03/26 21:33:24;;;;;;;10.45;6.10;;;;;;;;;;5071099;27;95774;-73
2022/03/26 21:35:51;;;;;;;10.60;6.32;;;;;;;;;;5057643;27;98251;-74
2022/03/26 21:38:17;;;;;;;13.60;6.88;;;;;;;;;;5050523;27;95782;-74
2022/03/26 21:40:46;;;;;;;9.98;6.50;;;;;;;;;;5062781;27;96805;-74
2022/03/26 21:43:13;;;;;;;8.50;5.60;;;;;;;;;;5069646;27;95180;-73
2022/03/26 21:45:40;;;;;;;11.38;6.47;;;;;;;;;;5070535;27;96713;-73
2022/03/26 21:48:06;;;;;;;13.82;6.20;;;;;;;;;;5070200;27;97710;-74
2022/03/26 21:50:33;;;;;;;11.15;6.30;;;;;;;;;;5061608;27;95660;-73
2022/03/26 21:52:59;;;;;;;12.27;6.57;;;;;;;;;;5069906;27;96071;-74
2022/03/26 21:55:26;;;;;;;10.98;5.95;;;;;;;;;;5069518;27;96241;-73
2022/03/26 21:57:55;;;;;;;10.40;5.88;;;;;;;;;;5069700;27;95603;-73
2022/03/26 22:00:21;;;;;;;10.70;6.00;;;;;;;;;;5069895;27;96802;-73
2022/03/26 22:02:47;;;;;;;10.63;5.88;;;;;;;;;;5073698;27;97482;-73
2022/03/26 22:05:14;;;;;;;9.82;5.50;;;;;;;;;;5068981;27;97262;-73
2022/03/26 22:07:40;;;;;;;9.00;5.18;;;;;;;;;;5069539;27;95851;-73
2022/03/26 22:10:08;;;;;;;7.38;5.32;;;;;;;;;;5070368;27;95505;-73
2022/03/26 22:12:34;;;;;;;7.28;5.40;;;;;;;;;;5067652;27;97036;-73
2022/03/26 22:15:01;;;;;;;8.55;4.40;;;;;;;;;;5063272;27;97665;-73
2022/03/26 22:17:27;;;;;;;7.43;4.90;;;;;;;;;;5069962;27;95926;-73
2022/03/26 22:19:55;;;;;;;7.53;5.13;;;;;;;;;;5069927;27;96868;-73
2022/03/26 22:22:21;;;;;;;9.63;5.30;;;;;;;;;;5067999;27;97376;-73
2022/03/26 22:24:48;;;;;;;7.45;5.18;;;;;;;;;;5071945;27;95630;-73
2022/03/26 22:27:14;;;;;;;8.20;5.32;;;;;;;;;;5069682;27;97045;-73
2022/03/26 22:29:41;;;;;;;9.38;4.85;;;;;;;;;;5069657;27;95597;-73
2022/03/26 22:32:08;;;;;;;7.07;4.88;;;;;;;;;;5067471;27;96818;-72
2022/03/26 22:34:54;;;;;;;7.45;4.90;;;;;;;;;;5069667;27;101249;-73
2022/03/26 22:37:22;;;;;;;7.85;5.03;;;;;;;;;;5068765;27;96308;-73
2022/03/26 22:42:34;;;;;;;7.10;4.65;;;;;;;;;;5069100;27;97297;-74
2022/03/26 22:45:00;;;;;;;10.55;4.60;;;;;;;;;;5071903;27;95419;-75
2022/03/26 22:47:28;;;;;;;6.90;4.43;;;;;;;;;;5067662;27;96572;-73
2022/03/26 22:49:55;;;;;;;7.07;4.70;;;;;;;;;;5069606;27;95268;-74
2022/03/26 22:52:23;;;;;;;6.60;4.10;;;;;;;;;;5067412;27;96798;-73
2022/03/26 22:54:51;;;;;;;6.80;4.35;;;;;;;;;;5068143;27;97367;-73
2022/03/26 22:57:36;;;;;;;7.57;4.80;;;;;;;;;;5069440;27;95644;-74
2022/03/26 23:00:23;;;;;;;5.88;4.50;;;;;;;;;;5068878;27;96337;-75
2022/03/26 23:02:50;;;;;;;7.15;5.32;;;;;;;;;;5035813;27;95875;-74
2022/03/26 23:05:17;;;;;;;8.43;5.18;;;;;;;;;;5056843;27;95776;-74
2022/03/26 23:07:43;;;;;;;7.97;5.50;;;;;;;;;;5071212;27;98437;-75
2022/03/26 23:10:10;;;;;;;8.73;4.85;;;;;;;;;;5067567;27;95372;-73
2022/03/26 23:12:37;;;;;;;9.13;5.25;;;;;;;;;;5069159;27;96545;-74
2022/03/26 23:15:04;;;;;;;8.18;5.50;;;;;;;;;;5061888;27;96906;-74
2022/03/26 23:17:30;;;;;;;7.40;5.50;;;;;;;;;;5069759;27;95956;-73
2022/03/26 23:19:56;;;;;;;6.97;4.97;;;;;;;;;;5063321;27;96806;-74
2022/03/26 23:22:23;;;;;;;8.20;5.85;;;;;;;;;;5070158;27;97136;-75
2022/03/26 23:24:50;;;;;;;8.90;5.63;;;;;;;;;;5070679;27;95435;-76
2022/03/26 23:27:16;;;;;;;9.68;5.78;;;;;;;;;;5061842;27;96238;-75
2022/03/26 23:29:42;;;;;;;9.82;6.22;;;;;;;;;;5073811;27;97249;-75
2022/03/26 23:32:09;;;;;;;7.72;5.57;;;;;;;;;;5069692;27;96952;-74
2022/03/26 23:34:37;;;;;;;10.55;6.35;;;;;;;;;;5070105;27;97925;-75
2022/03/26 23:37:04;;;;;;;9.88;6.50;;;;;;;;;;5053664;27;95144;-74
2022/03/26 23:39:32;;;;;;;9.63;7.10;;;;;;;;;;5051959;27;96884;-74
2022/03/26 23:41:59;;;;;;;12.43;6.90;;;;;;;;;;5055002;27;97408;-75
2022/03/26 23:44:26;;;;;;;9.40;6.70;;;;;;;;;;5061240;27;95479;-74
2022/03/26 23:46:53;;;;;;;12.40;6.82;;;;;;;;;;5065919;27;96854;-73
2022/03/26 23:49:19;;;;;;;11.32;7.80;;;;;;;;;;5067764;27;98564;-73
2022/03/26 23:51:46;;;;;;;10.23;7.80;;;;;;;;;;5065627;27;95378;-73
2022/03/26 23:54:12;;;;;;;10.45;7.53;;;;;;;;;;5063055;27;96011;-72
2022/03/26 23:56:39;;;;;;;12.20;8.10;;;;;;;;;;5050812;27;95329;-73
2022/03/26 23:59:06;;;;;;;11.02;7.95;;;;;;;;;;5052175;27;96799;-74
